Time;durP1;ratioP1;P1;durP2;ratioP2;P2;SDS_P1;SDS_P2;PMS_P1;PMS_P2;Temp;Humidity;BMP_temperature;BMP_pressure;BME280_temperature;BME280_humidity;BME280_pressure;Samples;Min_cycle;Max_cycle;Signal;HPM_P1;HPM_P2
2022/11/11 00:01:59;;;;;;;;;;;12.00;99.90;;;;;;4997045;28;19922;-68
2022/11/11 00:04:24;;;;;;;;;;;12.00;99.90;;;;;;4990220;28;19928;-68
2022/11/11 00:06:52;;;;;;;;;;;12.30;99.90;;;;;;4991169;28;19944;-68
2022/11/11 00:09:17;;;;;;;;;;;12.00;99.90;;;;;;4988878;28;20368;-68
2022/11/11 00:11:43;;;;;;;;;;;12.10;99.90;;;;;;4994348;28;19928;-68
2022/11/11 00:14:08;;;;;;;;;;;12.20;99.90;;;;;;4989962;28;19937;-68
2022/11/11 00:27:30;;;;;;;;;;;12.30;99.90;;;;;;4989166;28;19922;-67
2022/11/11 00:29:56;;;;;;;;;;;12.10;99.90;;;;;;4990696;28;20368;-68
2022/11/11 00:32:29;;;;;;;;;;;12.10;99.90;;;;;;4988729;28;19922;-67
2022/11/11 00:37:40;;;;;;;;;;;12.10;99.90;;;;;;4988637;28;19922;-68
2022/11/11 00:40:07;;;;;;;;;;;12.10;99.90;;;;;;4989630;28;19975;-68
2022/11/11 00:42:32;;;;;;;;;;;12.10;99.90;;;;;;4989441;28;19997;-68
2022/11/11 00:44:58;;;;;;;;;;;12.20;99.90;;;;;;4991014;28;20376;-67
2022/11/11 00:53:13;;;;;;;;;;;12.10;99.90;;;;;;4988564;28;20377;-68
2022/11/11 00:55:39;;;;;;;;;;;12.10;99.90;;;;;;4986752;28;20361;-68
2022/11/11 00:58:04;;;;;;;;;;;12.10;99.90;;;;;;4991591;28;19929;-68
2022/11/11 01:00:30;;;;;;;;;;;12.50;99.90;;;;;;4989448;28;20380;-68
2022/11/11 01:02:56;;;;;;;;;;;12.20;99.90;;;;;;4990197;28;20020;-69
2022/11/11 01:05:22;;;;;;;;;;;12.30;99.90;;;;;;4989807;28;19928;-68
2022/11/11 01:07:49;;;;;;;;;;;12.20;99.90;;;;;;4992688;28;20014;-69
2022/11/11 01:10:36;;;;;;;;;;;12.20;99.90;;;;;;4989358;28;19921;-69
2022/11/11 01:13:10;;;;;;;;;;;12.20;99.90;;;;;;4989606;28;20395;-69
2022/11/11 01:15:36;;;;;;;;;;;12.30;99.90;;;;;;4985813;28;19978;-69
2022/11/11 01:18:02;;;;;;;;;;;12.10;99.90;;;;;;4992685;28;20330;-69
2022/11/11 01:20:27;;;;;;;;;;;12.10;99.90;;;;;;4990260;28;19925;-67
2022/11/11 01:22:53;;;;;;;;;;;12.30;99.90;;;;;;4988634;28;19930;-68
2022/11/11 01:25:18;;;;;;;;;;;12.10;99.90;;;;;;4989832;28;20296;-67
2022/11/11 01:27:44;;;;;;;;;;;12.60;99.90;;;;;;4989656;28;19983;-68
2022/11/11 01:30:12;;;;;;;;;;;12.10;99.90;;;;;;4991818;28;19929;-68
2022/11/11 01:32:38;;;;;;;;;;;12.00;99.90;;;;;;4989728;28;19925;-68
2022/11/11 01:35:05;;;;;;;;;;;12.00;99.90;;;;;;4991109;28;19925;-68
2022/11/11 01:37:34;;;;;;;;;;;12.00;99.90;;;;;;4984588;28;19978;-69
2022/11/11 01:39:59;;;;;;;;;;;12.00;99.90;;;;;;4990076;28;20461;-68
2022/11/11 01:42:25;;;;;;;;;;;12.00;99.90;;;;;;4989004;28;20005;-69
2022/11/11 01:44:51;;;;;;;;;;;12.10;99.90;;;;;;4991795;28;20318;-69
2022/11/11 01:47:17;;;;;;;;;;;12.30;99.90;;;;;;4989291;28;20017;-69
2022/11/11 01:49:42;;;;;;;;;;;12.30;99.90;;;;;;4989118;28;19929;-69
2022/11/11 01:52:26;;;;;;;;;;;12.40;99.90;;;;;;4990020;28;19921;-69
2022/11/11 01:55:01;;;;;;;;;;;12.50;99.90;;;;;;4987698;28;20376;-69
2022/11/11 01:57:32;;;;;;;;;;;12.60;99.90;;;;;;4989329;28;19928;-69
2022/11/11 02:00:01;;;;;;;;;;;12.50;99.90;;;;;;4986061;28;20299;-68
2022/11/11 02:02:37;;;;;;;;;;;12.50;99.90;;;;;;4984911;28;20004;-69
2022/11/11 02:07:48;;;;;;;;;;;12.60;99.90;;;;;;4996766;28;19921;-68
2022/11/11 02:10:16;;;;;;;;;;;12.50;99.90;;;;;;4992508;28;19922;-68
2022/11/11 02:15:29;;;;;;;;;;;12.60;99.90;;;;;;4989358;28;19922;-68
2022/11/11 02:17:55;;;;;;;;;;;12.60;99.90;;;;;;4992035;28;19922;-69
2022/11/11 02:20:25;;;;;;;;;;;12.60;99.90;;;;;;4991238;28;19922;-69
2022/11/11 02:22:56;;;;;;;;;;;12.60;99.90;;;;;;4991126;28;19918;-69
2022/11/11 02:25:24;;;;;;;;;;;12.80;99.90;;;;;;4991507;28;19969;-69
2022/11/11 02:27:50;;;;;;;;;;;12.60;99.90;;;;;;4992581;28;19918;-69
2022/11/11 02:30:17;;;;;;;;;;;12.70;99.90;;;;;;4992474;28;20056;-68
2022/11/11 02:32:47;;;;;;;;;;;12.60;99.90;;;;;;4992675;28;19975;-67
2022/11/11 02:35:15;;;;;;;;;;;12.70;99.90;;;;;;4991231;28;19944;-68
2022/11/11 02:37:45;;;;;;;;;;;12.70;99.90;;;;;;4990181;28;19922;-68
2022/11/11 02:40:15;;;;;;;;;;;12.70;99.90;;;;;;4992610;28;19924;-68
2022/11/11 02:42:41;;;;;;;;;;;12.70;99.90;;;;;;4992067;28;20012;-69
2022/11/11 02:45:07;;;;;;;;;;;12.60;99.90;;;;;;4992369;28;20017;-70
2022/11/11 02:47:32;;;;;;;;;;;12.70;99.90;;;;;;4993268;28;19933;-69
2022/11/11 02:49:58;;;;;;;;;;;12.70;99.90;;;;;;4994325;28;20005;-67
2022/11/11 02:52:23;;;;;;;;;;;12.70;99.90;;;;;;4991468;28;19922;-68
2022/11/11 02:54:49;;;;;;;;;;;12.70;99.90;;;;;;4995297;28;19922;-69
2022/11/11 02:57:15;;;;;;;;;;;12.60;99.90;;;;;;4996023;28;20356;-69
2022/11/11 02:59:43;;;;;;;;;;;12.60;99.90;;;;;;4992443;28;19925;-68
2022/11/11 03:02:08;;;;;;;;;;;13.10;99.90;;;;;;4991897;28;20016;-68
2022/11/11 03:04:34;;;;;;;;;;;12.80;99.90;;;;;;4992691;28;19922;-68
2022/11/11 03:06:59;;;;;;;;;;;12.60;99.90;;;;;;4991198;28;19926;-69
2022/11/11 03:09:25;;;;;;;;;;;12.60;99.90;;;;;;4992446;28;20353;-68
2022/11/11 03:11:51;;;;;;;;;;;12.50;99.90;;;;;;4991775;28;20018;-68
2022/11/11 03:14:16;;;;;;;;;;;12.40;99.90;;;;;;4991742;28;20059;-68
2022/11/11 03:19:27;;;;;;;;;;;12.40;99.90;;;;;;4989347;28;19922;-68
2022/11/11 03:21:54;;;;;;;;;;;12.30;99.90;;;;;;4991327;28;20430;-67
2022/11/11 03:24:20;;;;;;;;;;;12.20;99.90;;;;;;4991532;28;19948;-67
2022/11/11 03:26:46;;;;;;;;;;;12.20;99.90;;;;;;4991047;28;19925;-69
2022/11/11 03:29:12;;;;;;;;;;;12.30;99.90;;;;;;4988086;28;20331;-69
2022/11/11 03:31:38;;;;;;;;;;;12.30;99.90;;;;;;4990056;28;19943;-69
2022/11/11 03:34:18;;;;;;;;;;;12.40;99.90;;;;;;4992789;28;20020;-69
2022/11/11 03:39:28;;;;;;;;;;;12.20;99.90;;;;;;4990130;28;20024;-68
2022/11/11 03:41:55;;;;;;;;;;;12.10;99.90;;;;;;4989116;28;19918;-69
2022/11/11 03:44:20;;;;;;;;;;;12.10;99.90;;;;;;4991459;28;19922;-69
2022/11/11 03:46:46;;;;;;;;;;;12.40;99.90;;;;;;4989734;28;19928;-69
2022/11/11 03:49:11;;;;;;;;;;;12.10;99.90;;;;;;4990796;28;20013;-69
2022/11/11 03:51:37;;;;;;;;;;;12.10;99.90;;;;;;4988542;28;19936;-69
2022/11/11 03:54:02;;;;;;;;;;;12.00;99.90;;;;;;4990155;28;19930;-69
2022/11/11 03:56:28;;;;;;;;;;;12.10;99.90;;;;;;4989632;28;20028;-69
2022/11/11 03:58:53;;;;;;;;;;;12.00;99.90;;;;;;4990806;28;20381;-68
2022/11/11 04:12:15;;;;;;;;;;;11.90;99.90;;;;;;4988640;28;19921;-69
2022/11/11 04:17:25;;;;;;;;;;;12.10;99.90;;;;;;4995735;28;19934;-69
2022/11/11 04:22:41;;;;;;;;;;;11.90;99.90;;;;;;4986756;28;19922;-69
2022/11/11 04:29:27;;;;;;;;;;;11.80;99.90;;;;;;4989193;28;19922;-69
2022/11/11 04:30:40;;;;;;;;;;;11.90;99.90;;;;;;4987149;28;19922;-69
2022/11/11 04:33:06;;;;;;;;;;;11.80;99.90;;;;;;4990877;28;19956;-69
2022/11/11 04:35:31;;;;;;;;;;;11.70;99.90;;;;;;4990712;28;20288;-68
2022/11/11 04:41:02;;;;;;;;;;;11.60;99.90;;;;;;4990222;28;19922;-69
2022/11/11 04:43:27;;;;;;;;;;;11.60;99.90;;;;;;4990254;28;19921;-69
2022/11/11 04:45:52;;;;;;;;;;;11.60;99.90;;;;;;4989074;28;20016;-69
2022/11/11 04:48:19;;;;;;;;;;;11.60;99.90;;;;;;4990763;28;19929;-69
2022/11/11 04:50:45;;;;;;;;;;;11.60;99.90;;;;;;4990857;28;20377;-69
2022/11/11 04:53:12;;;;;;;;;;;11.60;99.90;;;;;;4990340;28;19969;-69
2022/11/11 04:58:23;;;;;;;;;;;11.60;99.90;;;;;;4993885;28;19929;-69
2022/11/11 05:00:48;;;;;;;;;;;12.60;99.90;;;;;;4990098;28;19930;-69
2022/11/11 05:03:15;;;;;;;;;;;11.70;99.90;;;;;;4990212;28;20003;-67
2022/11/11 05:11:19;;;;;;;;;;;11.50;99.90;;;;;;4990655;28;19925;-67
2022/11/11 05:22:05;;;;;;;;;;;11.30;99.90;;;;;;4987145;28;19998;-68
2022/11/11 05:27:15;;;;;;;;;;;11.10;99.90;;;;;;4989351;28;19922;-67
2022/11/11 05:29:40;;;;;;;;;;;11.20;99.90;;;;;;4989961;28;19966;-68
2022/11/11 05:32:06;;;;;;;;;;;11.00;99.90;;;;;;4990296;28;19922;-69
2022/11/11 05:34:32;;;;;;;;;;;11.10;99.90;;;;;;4988126;28;19922;-68
2022/11/11 05:36:57;;;;;;;;;;;11.20;99.90;;;;;;4989870;28;19921;-70
2022/11/11 05:39:23;;;;;;;;;;;11.80;99.90;;;;;;4989444;28;20295;-68
2022/11/11 05:41:48;;;;;;;;;;;11.00;99.90;;;;;;4988858;28;19926;-67
2022/11/11 05:44:14;;;;;;;;;;;11.00;99.90;;;;;;4989435;28;19930;-67
2022/11/11 05:46:39;;;;;;;;;;;10.90;99.90;;;;;;4992326;28;19948;-70
2022/11/11 05:49:14;;;;;;;;;;;11.10;99.90;;;;;;4988353;28;20294;-68
2022/11/11 05:51:39;;;;;;;;;;;11.70;99.90;;;;;;4989629;28;19921;-68
2022/11/11 05:54:05;;;;;;;;;;;10.90;99.90;;;;;;4988155;28;19991;-69
2022/11/11 05:56:31;;;;;;;;;;;11.00;99.90;;;;;;4989194;28;20323;-67
2022/11/11 05:58:56;;;;;;;;;;;11.10;99.90;;;;;;4989652;28;19922;-68
2022/11/11 06:01:22;;;;;;;;;;;11.50;99.90;;;;;;4988965;28;20322;-70
2022/11/11 06:03:47;;;;;;;;;;;11.20;99.90;;;;;;4990002;28;19922;-69
2022/11/11 06:06:13;;;;;;;;;;;11.10;99.90;;;;;;4988465;28;19926;-68
2022/11/11 06:08:39;;;;;;;;;;;11.30;99.90;;;;;;4987746;28;19926;-67
2022/11/11 06:11:07;;;;;;;;;;;11.10;99.90;;;;;;4989425;28;19929;-68
2022/11/11 06:13:33;;;;;;;;;;;11.10;99.90;;;;;;4992151;28;19922;-68
2022/11/11 06:15:59;;;;;;;;;;;11.20;99.90;;;;;;4989692;28;20300;-68
2022/11/11 06:18:24;;;;;;;;;;;11.10;99.90;;;;;;4989594;28;20431;-71
2022/11/11 06:20:53;;;;;;;;;;;11.10;99.90;;;;;;4987812;28;19926;-68
2022/11/11 06:23:19;;;;;;;;;;;11.10;99.90;;;;;;4989289;28;19922;-69
2022/11/11 06:28:29;;;;;;;;;;;11.10;99.90;;;;;;4986167;28;19921;-65
2022/11/11 06:30:54;;;;;;;;;;;11.50;99.90;;;;;;4986694;28;20486;-66
2022/11/11 06:33:20;;;;;;;;;;;11.10;99.90;;;;;;4989239;28;19929;-67
2022/11/11 06:35:46;;;;;;;;;;;11.20;99.90;;;;;;4988613;28;19926;-67
2022/11/11 06:38:12;;;;;;;;;;;11.10;99.90;;;;;;4988349;28;20016;-67
2022/11/11 06:40:38;;;;;;;;;;;11.10;99.90;;;;;;4988717;28;20262;-69
2022/11/11 06:43:03;;;;;;;;;;;11.20;99.90;;;;;;4988671;28;19936;-67
2022/11/11 06:45:29;;;;;;;;;;;11.80;99.90;;;;;;4989288;28;19922;-70
2022/11/11 06:47:55;;;;;;;;;;;11.50;99.90;;;;;;4989012;28;19922;-70
2022/11/11 06:50:20;;;;;;;;;;;11.30;99.90;;;;;;4988826;28;19928;-68
2022/11/11 06:52:46;;;;;;;;;;;11.30;99.90;;;;;;4990603;28;19928;-71
2022/11/11 06:55:13;;;;;;;;;;;11.60;99.90;;;;;;4994131;28;20012;-69
2022/11/11 06:57:38;;;;;;;;;;;11.20;99.90;;;;;;4998301;28;19921;-70
2022/11/11 07:00:05;;;;;;;;;;;11.50;99.90;;;;;;4995077;28;19928;-69
2022/11/11 07:02:31;;;;;;;;;;;11.30;99.90;;;;;;4992290;28;19921;-70
2022/11/11 07:04:59;;;;;;;;;;;11.30;99.90;;;;;;4991277;28;19933;-68
2022/11/11 07:07:25;;;;;;;;;;;11.30;99.90;;;;;;4990952;28;20016;-69
2022/11/11 07:09:56;;;;;;;;;;;11.30;99.90;;;;;;4991786;28;19925;-71
2022/11/11 07:12:22;;;;;;;;;;;11.30;99.90;;;;;;4991707;28;19921;-69
2022/11/11 07:14:47;;;;;;;;;;;12.60;99.90;;;;;;4993647;28;19922;-69
2022/11/11 07:17:13;;;;;;;;;;;11.20;99.90;;;;;;4991908;28;19925;-70
2022/11/11 07:19:38;;;;;;;;;;;11.40;99.90;;;;;;4990960;28;19922;-71
2022/11/11 07:22:04;;;;;;;;;;;11.40;99.90;;;;;;4994657;28;20360;-69
2022/11/11 07:24:29;;;;;;;;;;;11.40;99.90;;;;;;4995120;28;19922;-69
2022/11/11 07:26:55;;;;;;;;;;;11.40;99.90;;;;;;4990569;28;20717;-73
2022/11/11 07:29:30;;;;;;;;;;;11.30;99.90;;;;;;4991546;28;20292;-73
2022/11/11 07:31:55;;;;;;;;;;;11.20;99.90;;;;;;4989832;28;19925;-73
2022/11/11 07:34:21;;;;;;;;;;;11.20;99.90;;;;;;4989646;28;19921;-71
2022/11/11 07:36:46;;;;;;;;;;;11.10;99.90;;;;;;4991806;28;20281;-72
2022/11/11 07:39:12;;;;;;;;;;;11.20;99.90;;;;;;4995942;28;19928;-72
2022/11/11 07:41:40;;;;;;;;;;;11.20;99.90;;;;;;4991059;28;19921;-71
2022/11/11 07:44:05;;;;;;;;;;;11.30;99.90;;;;;;4991584;28;19967;-71
2022/11/11 07:46:31;;;;;;;;;;;11.30;99.90;;;;;;4991116;28;19921;-71
2022/11/11 07:48:56;;;;;;;;;;;11.30;99.90;;;;;;4992434;28;19928;-70
2022/11/11 07:51:22;;;;;;;;;;;11.20;99.90;;;;;;4990952;28;20323;-70
2022/11/11 07:53:47;;;;;;;;;;;11.20;99.90;;;;;;4990196;28;19922;-70
2022/11/11 07:56:16;;;;;;;;;;;11.90;99.90;;;;;;4991510;28;19964;-70
2022/11/11 07:58:41;;;;;;;;;;;11.10;99.90;;;;;;4990898;28;20292;-70
2022/11/11 08:01:07;;;;;;;;;;;11.70;99.90;;;;;;4990862;28;19922;-70
2022/11/11 08:03:32;;;;;;;;;;;11.20;99.90;;;;;;4989821;28;19922;-70
2022/11/11 08:06:00;;;;;;;;;;;11.40;99.90;;;;;;4988334;28;19921;-70
2022/11/11 08:08:29;;;;;;;;;;;11.30;99.90;;;;;;4984906;28;19922;-70
2022/11/11 08:10:57;;;;;;;;;;;11.30;99.90;;;;;;4986006;28;19922;-71
2022/11/11 08:13:42;;;;;;;;;;;11.80;99.90;;;;;;4989680;28;19933;-71
2022/11/11 08:16:11;;;;;;;;;;;11.30;99.90;;;;;;4985201;28;19991;-71
2022/11/11 08:18:37;;;;;;;;;;;11.30;99.90;;;;;;4989815;28;19926;-71
2022/11/11 08:21:03;;;;;;;;;;;12.00;99.90;;;;;;4990058;28;20012;-71
2022/11/11 08:23:31;;;;;;;;;;;11.40;99.90;;;;;;4990333;28;19921;-71
2022/11/11 08:26:01;;;;;;;;;;;11.40;99.90;;;;;;4990112;28;20349;-71
2022/11/11 08:28:27;;;;;;;;;;;11.50;99.90;;;;;;4992599;28;19921;-71
2022/11/11 08:30:53;;;;;;;;;;;11.40;99.90;;;;;;4990531;28;19922;-71
2022/11/11 08:33:18;;;;;;;;;;;11.60;99.90;;;;;;4991191;28;19928;-71
2022/11/11 08:35:44;;;;;;;;;;;11.50;99.90;;;;;;4988863;28;19992;-71
2022/11/11 08:38:11;;;;;;;;;;;11.50;99.90;;;;;;4990753;28;19928;-71
2022/11/11 08:40:37;;;;;;;;;;;12.10;99.90;;;;;;4990412;28;19922;-71
2022/11/11 08:43:03;;;;;;;;;;;11.40;99.90;;;;;;4991159;28;20057;-71
2022/11/11 08:45:28;;;;;;;;;;;11.40;99.90;;;;;;4990414;28;19922;-71
2022/11/11 08:47:54;;;;;;;;;;;11.50;99.90;;;;;;4990361;28;19982;-71
2022/11/11 08:50:19;;;;;;;;;;;11.50;99.90;;;;;;4992181;28;20387;-71
2022/11/11 08:52:46;;;;;;;;;;;11.50;99.90;;;;;;4990325;28;19926;-70
2022/11/11 08:55:11;;;;;;;;;;;11.40;99.90;;;;;;4990674;28;20005;-71
2022/11/11 08:57:37;;;;;;;;;;;11.60;99.90;;;;;;4988118;28;20017;-70
2022/11/11 09:00:03;;;;;;;;;;;11.30;99.90;;;;;;4990465;28;20261;-71
2022/11/11 09:02:28;;;;;;;;;;;11.40;99.90;;;;;;4990541;28;19975;-71
2022/11/11 09:04:54;;;;;;;;;;;11.50;99.90;;;;;;4992810;28;19921;-70
2022/11/11 09:07:19;;;;;;;;;;;11.50;99.90;;;;;;4990295;28;19922;-71
2022/11/11 09:09:45;;;;;;;;;;;11.50;99.90;;;;;;4990195;28;20008;-71
2022/11/11 09:12:10;;;;;;;;;;;11.40;99.90;;;;;;4991083;28;20009;-71
2022/11/11 09:14:36;;;;;;;;;;;12.20;99.90;;;;;;4994002;28;20318;-72
2022/11/11 09:17:01;;;;;;;;;;;11.40;99.90;;;;;;4989529;28;19922;-70
2022/11/11 09:19:27;;;;;;;;;;;11.50;99.90;;;;;;4989480;28;20349;-70
2022/11/11 09:21:52;;;;;;;;;;;11.40;99.90;;;;;;4989923;28;19948;-71
2022/11/11 09:24:21;;;;;;;;;;;11.60;99.90;;;;;;4990112;28;19922;-71
2022/11/11 09:26:48;;;;;;;;;;;11.40;99.90;;;;;;4989420;28;19929;-71
2022/11/11 09:29:13;;;;;;;;;;;11.40;99.90;;;;;;4988861;28;19930;-71
2022/11/11 09:31:39;;;;;;;;;;;11.60;99.90;;;;;;4989802;28;19929;-71
2022/11/11 09:34:05;;;;;;;;;;;11.80;99.90;;;;;;4988622;28;20287;-71
2022/11/11 09:36:31;;;;;;;;;;;11.50;99.90;;;;;;4989770;28;19921;-71
2022/11/11 09:38:58;;;;;;;;;;;11.50;99.90;;;;;;4988692;28;19921;-71
2022/11/11 09:41:31;;;;;;;;;;;11.60;99.90;;;;;;4988386;28;19926;-71
2022/11/11 09:43:58;;;;;;;;;;;11.60;99.90;;;;;;4990158;28;20288;-71
2022/11/11 09:46:33;;;;;;;;;;;11.70;99.90;;;;;;4989228;28;19925;-71
2022/11/11 09:49:09;;;;;;;;;;;11.70;99.90;;;;;;4989899;28;19922;-71
2022/11/11 09:51:41;;;;;;;;;;;11.80;99.90;;;;;;4989422;28;19929;-71
2022/11/11 09:54:11;;;;;;;;;;;11.70;99.90;;;;;;4989141;28;19922;-71
2022/11/11 09:56:37;;;;;;;;;;;11.70;99.90;;;;;;4988430;28;19928;-71
2022/11/11 09:59:15;;;;;;;;;;;11.70;99.90;;;;;;4989999;28;19984;-71
2022/11/11 10:01:43;;;;;;;;;;;11.70;99.90;;;;;;4985362;28;19929;-71
2022/11/11 10:04:27;;;;;;;;;;;11.90;99.90;;;;;;4988464;28;19947;-71
2022/11/11 10:06:56;;;;;;;;;;;11.80;99.90;;;;;;4987543;28;20442;-71
2022/11/11 10:09:40;;;;;;;;;;;11.90;99.90;;;;;;4989516;28;20056;-71
2022/11/11 10:12:15;;;;;;;;;;;11.80;99.90;;;;;;4985906;28;19928;-71
2022/11/11 10:14:44;;;;;;;;;;;11.80;99.90;;;;;;4985104;28;19984;-71
2022/11/11 10:17:13;;;;;;;;;;;12.10;99.90;;;;;;4990541;28;20361;-70
2022/11/11 10:19:50;;;;;;;;;;;11.80;99.90;;;;;;4989417;28;19921;-71
2022/11/11 10:22:42;;;;;;;;;;;11.90;99.90;;;;;;4988842;28;19922;-71
2022/11/11 10:25:10;;;;;;;;;;;11.80;99.90;;;;;;4984346;28;20039;-71
2022/11/11 10:27:38;;;;;;;;;;;11.90;99.90;;;;;;4991156;28;19964;-71
2022/11/11 10:30:12;;;;;;;;;;;12.10;99.90;;;;;;4988584;28;20012;-71
2022/11/11 10:32:38;;;;;;;;;;;12.20;99.90;;;;;;4989274;28;19929;-71
2022/11/11 10:35:17;;;;;;;;;;;11.90;99.90;;;;;;4991130;28;19926;-71
2022/11/11 10:37:43;;;;;;;;;;;11.90;99.90;;;;;;4989719;28;19922;-71
2022/11/11 10:40:16;;;;;;;;;;;12.10;99.90;;;;;;4992776;28;20004;-71
2022/11/11 10:42:42;;;;;;;;;;;11.90;99.90;;;;;;4991705;28;19929;-71
2022/11/11 10:45:11;;;;;;;;;;;11.90;99.90;;;;;;4992487;28;19929;-71
2022/11/11 10:47:46;;;;;;;;;;;11.90;99.90;;;;;;4993792;28;19964;-71
2022/11/11 10:50:15;;;;;;;;;;;11.90;99.90;;;;;;4994450;28;19922;-71
2022/11/11 10:52:42;;;;;;;;;;;12.00;99.90;;;;;;4992218;28;19953;-71
2022/11/11 10:55:10;;;;;;;;;;;11.90;99.90;;;;;;4991121;28;19951;-71
2022/11/11 10:57:35;;;;;;;;;;;11.90;99.90;;;;;;4991495;28;19929;-71
2022/11/11 11:00:05;;;;;;;;;;;11.90;99.90;;;;;;4992550;28;19926;-71
2022/11/11 11:02:38;;;;;;;;;;;11.90;99.90;;;;;;4989620;28;20338;-71
2022/11/11 11:05:12;;;;;;;;;;;11.90;99.90;;;;;;4999232;28;19926;-71
2022/11/11 11:07:44;;;;;;;;;;;12.00;99.90;;;;;;4994407;28;19922;-70
2022/11/11 11:10:13;;;;;;;;;;;11.90;99.90;;;;;;4996496;28;19922;-71
2022/11/11 11:12:39;;;;;;;;;;;12.00;99.90;;;;;;4997676;28;19968;-70
2022/11/11 11:15:09;;;;;;;;;;;12.20;99.90;;;;;;4994189;28;19921;-71
2022/11/11 11:17:36;;;;;;;;;;;12.00;99.90;;;;;;4990963;28;19929;-71
2022/11/11 11:20:12;;;;;;;;;;;12.00;99.90;;;;;;4991928;28;19926;-70
2022/11/11 11:22:51;;;;;;;;;;;11.90;99.90;;;;;;4993593;28;19929;-69
2022/11/11 11:25:21;;;;;;;;;;;11.90;99.90;;;;;;4990417;28;19932;-72
2022/11/11 11:27:48;;;;;;;;;;;11.80;99.90;;;;;;4989823;28;19999;-69
2022/11/11 11:30:21;;;;;;;;;;;11.90;99.90;;;;;;4991206;28;20016;-71
2022/11/11 11:33:00;;;;;;;;;;;11.90;99.90;;;;;;4988714;28;19983;-68
2022/11/11 11:35:29;;;;;;;;;;;11.80;99.90;;;;;;4989907;28;19929;-68
2022/11/11 11:37:54;;;;;;;;;;;11.90;99.90;;;;;;4988683;28;20288;-67
2022/11/11 11:40:20;;;;;;;;;;;11.90;99.90;;;;;;4988977;28;19923;-69
2022/11/11 11:42:45;;;;;;;;;;;12.00;99.90;;;;;;4988275;28;19922;-69
2022/11/11 11:45:20;;;;;;;;;;;12.00;99.90;;;;;;4989061;28;19921;-72
2022/11/11 11:47:45;;;;;;;;;;;12.00;99.90;;;;;;4990177;28;19922;-68
2022/11/11 11:50:11;;;;;;;;;;;12.10;99.90;;;;;;4990551;28;19929;-66
2022/11/11 11:52:57;;;;;;;;;;;12.10;99.90;;;;;;4990475;28;19953;-66
2022/11/11 11:55:29;;;;;;;;;;;12.20;99.90;;;;;;4988229;28;20040;-67
2022/11/11 11:58:02;;;;;;;;;;;12.10;99.90;;;;;;4989467;28;19953;-67
2022/11/11 12:00:29;;;;;;;;;;;12.20;99.90;;;;;;4990789;28;19922;-67
2022/11/11 12:02:57;;;;;;;;;;;12.10;99.90;;;;;;4990774;28;19922;-68
2022/11/11 12:05:25;;;;;;;;;;;12.10;99.90;;;;;;4991431;28;20005;-71
2022/11/11 12:08:01;;;;;;;;;;;12.10;99.90;;;;;;4990094;28;19926;-71
2022/11/11 12:10:56;;;;;;;;;;;12.10;99.90;;;;;;4991580;28;20008;-73
2022/11/11 12:13:30;;;;;;;;;;;12.20;99.90;;;;;;4975587;28;20334;-73
2022/11/11 12:15:57;;;;;;;;;;;12.10;99.90;;;;;;4990763;28;19952;-70
2022/11/11 12:18:41;;;;;;;;;;;12.20;99.90;;;;;;4991003;28;20005;-70
2022/11/11 12:21:10;;;;;;;;;;;12.10;99.90;;;;;;4986661;28;20825;-70
2022/11/11 12:23:39;;;;;;;;;;;12.80;99.90;;;;;;4989384;28;19929;-69
2022/11/11 12:26:17;;;;;;;;;;;12.20;99.90;;;;;;4992031;28;19928;-69
2022/11/11 12:28:51;;;;;;;;;;;12.20;99.90;;;;;;4985973;28;19922;-68
2022/11/11 12:31:24;;;;;;;;;;;12.20;99.90;;;;;;4987871;28;20008;-68
2022/11/11 12:33:57;;;;;;;;;;;12.20;99.90;;;;;;4990380;28;19922;-69
2022/11/11 12:36:28;;;;;;;;;;;12.10;99.90;;;;;;4990603;28;19922;-68
2022/11/11 12:39:16;;;;;;;;;;;12.20;99.90;;;;;;4990529;28;19925;-69
2022/11/11 12:41:53;;;;;;;;;;;12.20;99.90;;;;;;4986223;28;19956;-70
2022/11/11 12:44:21;;;;;;;;;;;12.20;99.90;;;;;;4987631;28;19921;-69
2022/11/11 12:47:04;;;;;;;;;;;12.40;99.90;;;;;;4989312;28;19921;-70
2022/11/11 12:49:44;;;;;;;;;;;12.30;99.90;;;;;;4990736;28;19922;-69
2022/11/11 12:52:13;;;;;;;;;;;12.30;99.90;;;;;;4986924;28;19922;-69
2022/11/11 12:54:45;;;;;;;;;;;12.30;99.90;;;;;;4986499;28;19974;-69
2022/11/11 12:57:11;;;;;;;;;;;12.30;99.90;;;;;;4985488;28;19944;-69
2022/11/11 12:59:36;;;;;;;;;;;12.80;99.90;;;;;;4988879;28;20030;-70
2022/11/11 13:02:11;;;;;;;;;;;12.60;99.90;;;;;;4989248;28;19928;-69
2022/11/11 13:04:55;;;;;;;;;;;12.30;99.90;;;;;;4988367;28;19922;-68
2022/11/11 13:07:44;;;;;;;;;;;12.40;99.90;;;;;;4988602;28;19921;-69
2022/11/11 13:10:28;;;;;;;;;;;12.40;99.90;;;;;;4988463;28;19922;-69
2022/11/11 13:13:29;;;;;;;;;;;12.40;99.90;;;;;;4988532;28;19979;-69
2022/11/11 13:15:55;;;;;;;;;;;12.50;99.90;;;;;;4988618;28;19974;-70
2022/11/11 13:18:26;;;;;;;;;;;12.40;99.90;;;;;;4993177;28;20300;-69
2022/11/11 13:20:54;;;;;;;;;;;12.20;99.90;;;;;;4989901;28;19926;-70
2022/11/11 13:23:19;;;;;;;;;;;12.20;99.90;;;;;;4990283;28;19929;-70
2022/11/11 13:25:47;;;;;;;;;;;12.20;99.90;;;;;;4988947;28;19922;-70
2022/11/11 13:28:15;;;;;;;;;;;12.40;99.90;;;;;;4992259;28;19922;-70
2022/11/11 13:30:46;;;;;;;;;;;12.30;99.90;;;;;;4989571;28;20357;-70
2022/11/11 13:33:20;;;;;;;;;;;12.30;99.90;;;;;;4988203;28;19925;-69
2022/11/11 13:35:56;;;;;;;;;;;12.20;99.90;;;;;;4990419;28;20307;-69
2022/11/11 13:38:42;;;;;;;;;;;12.30;99.90;;;;;;4990674;28;19921;-69
2022/11/11 13:41:08;;;;;;;;;;;12.80;99.90;;;;;;4986522;28;19963;-70
2022/11/11 13:43:35;;;;;;;;;;;12.20;99.90;;;;;;4988350;28;20012;-69
2022/11/11 13:46:03;;;;;;;;;;;12.20;99.90;;;;;;4984736;28;20396;-70
2022/11/11 13:48:35;;;;;;;;;;;12.20;99.90;;;;;;4990596;28;20504;-71
2022/11/11 13:51:21;;;;;;;;;;;12.20;99.90;;;;;;4986200;28;20277;-70
2022/11/11 13:53:47;;;;;;;;;;;12.20;99.90;;;;;;4985762;28;19922;-69
2022/11/11 13:56:29;;;;;;;;;;;12.10;99.90;;;;;;4989763;28;19944;-69
2022/11/11 13:58:55;;;;;;;;;;;12.20;99.90;;;;;;4990415;28;19929;-69
2022/11/11 14:01:21;;;;;;;;;;;12.60;99.90;;;;;;4991430;28;19921;-70
2022/11/11 14:03:49;;;;;;;;;;;12.20;99.90;;;;;;4992618;28;19925;-70
2022/11/11 14:06:15;;;;;;;;;;;12.20;99.90;;;;;;4992638;28;20388;-70
2022/11/11 14:08:46;;;;;;;;;;;12.20;99.90;;;;;;4996320;28;19928;-70
2022/11/11 14:11:24;;;;;;;;;;;12.20;99.90;;;;;;4991828;28;20009;-70
2022/11/11 14:13:50;;;;;;;;;;;12.10;99.90;;;;;;4991390;28;19929;-69
2022/11/11 14:16:34;;;;;;;;;;;12.10;99.90;;;;;;4991448;28;20004;-70
2022/11/11 14:19:18;;;;;;;;;;;12.20;99.90;;;;;;4989902;28;19922;-70
2022/11/11 14:21:56;;;;;;;;;;;12.20;99.90;;;;;;4990264;28;19933;-72
2022/11/11 14:24:36;;;;;;;;;;;12.10;99.90;;;;;;4995048;28;19987;-69
2022/11/11 14:27:21;;;;;;;;;;;12.10;99.90;;;;;;4990042;28;20443;-68
2022/11/11 14:29:51;;;;;;;;;;;12.10;99.90;;;;;;4993944;28;19937;-69
2022/11/11 14:32:23;;;;;;;;;;;12.10;99.90;;;;;;4992619;28;20368;-71
2022/11/11 14:34:51;;;;;;;;;;;12.00;99.90;;;;;;4991742;28;20004;-70
2022/11/11 14:37:16;;;;;;;;;;;12.00;99.90;;;;;;4991486;28;19922;-69
2022/11/11 14:39:52;;;;;;;;;;;12.10;99.90;;;;;;4991744;28;20154;-68
2022/11/11 14:42:34;;;;;;;;;;;12.10;99.90;;;;;;4994748;28;19972;-70
2022/11/11 14:45:24;;;;;;;;;;;12.00;99.90;;;;;;4988295;28;20334;-70
2022/11/11 14:47:50;;;;;;;;;;;12.10;99.90;;;;;;4994520;28;19967;-69
2022/11/11 14:50:31;;;;;;;;;;;12.00;99.90;;;;;;4991705;28;19922;-70
2022/11/11 14:52:58;;;;;;;;;;;11.90;99.90;;;;;;4994313;28;20296;-70
2022/11/11 14:55:28;;;;;;;;;;;11.90;99.90;;;;;;4991195;28;20319;-69
2022/11/11 14:57:53;;;;;;;;;;;11.90;99.90;;;;;;4990864;28;19921;-70
2022/11/11 15:00:19;;;;;;;;;;;11.80;99.90;;;;;;4992321;28;19967;-68
2022/11/11 15:02:53;;;;;;;;;;;12.00;99.90;;;;;;4991210;28;19922;-69
2022/11/11 15:05:39;;;;;;;;;;;12.00;99.90;;;;;;4988847;28;20013;-69
2022/11/11 15:08:11;;;;;;;;;;;11.90;99.90;;;;;;4990046;28;19972;-70
2022/11/11 15:10:55;;;;;;;;;;;11.90;99.90;;;;;;4990934;28;19922;-70
2022/11/11 15:13:39;;;;;;;;;;;11.90;99.90;;;;;;4990606;28;19928;-67
2022/11/11 15:16:26;;;;;;;;;;;12.00;99.90;;;;;;4991956;28;19951;-69
2022/11/11 15:19:14;;;;;;;;;;;11.90;99.90;;;;;;4992353;28;19948;-69
2022/11/11 15:21:45;;;;;;;;;;;11.80;99.90;;;;;;4991212;28;19922;-69
2022/11/11 15:24:29;;;;;;;;;;;11.90;99.90;;;;;;4991445;28;19922;-69
2022/11/11 15:26:58;;;;;;;;;;;11.90;99.90;;;;;;4989215;28;20433;-69
2022/11/11 15:29:24;;;;;;;;;;;11.90;99.90;;;;;;4992632;28;19933;-69
2022/11/11 15:31:59;;;;;;;;;;;11.90;99.90;;;;;;4994547;28;20325;-69
2022/11/11 15:34:40;;;;;;;;;;;11.90;99.90;;;;;;4993501;28;19922;-68
2022/11/11 15:37:09;;;;;;;;;;;11.80;99.90;;;;;;4995737;28;19936;-69
2022/11/11 15:39:39;;;;;;;;;;;11.80;99.90;;;;;;4989386;28;20024;-70
2022/11/11 15:42:09;;;;;;;;;;;11.80;99.90;;;;;;5005784;28;19930;-69
2022/11/11 15:44:35;;;;;;;;;;;11.80;99.90;;;;;;5002083;28;19930;-71